Select Airport:
Chesapeake Regional Airport
Last updated: 18 minutes ago
Flight conditions: VFR
Visibility: 7.0 statute miles
Sky Conditions: Clear
Wind From: 70°
Wind speed: 3 knots (3.45 mph)
Temperature: 23.6°C (74.48°F)
Dew Point: 23.0°C (73.4°F)
Altimiter setting: 29.92 in-hg
WX phone: 1-757-204-4290
WX freq: 123.675 MHz
Runway 5
   Crosswind component: 1.03 knots (1.18 mph)
   Headwind component: 2.82 knots (3.24 mph)
KCPK 090335Z AUTO 07003KT 7SM CLR 24/23 A2992 RMK AO2 T02360230
FOR REFERENCE USE ONLY, DATA MAY NOT BE CURRENT.
ALWAYS CHECK FOR UP TO DATE INFORMATION.